Terminal Aerodrome Forecast
Issued by NWS Blacksburg, VA

Current Version | Previous Version | Text Only | Print | Product List | Glossary Off
Versions: 1 2 3 4 5 6 7 8 9 10 11 12 13 14 15 16 17 18

000
FTUS41 KRNK 221727
TAFBLF
TAF
KBLF 221727Z 2218/2318 30009KT P6SM -SHRA BKN025 OVC040
     FM222000 29013G25KT P6SM BKN015 OVC030
     FM230100 31011KT P6SM BKN025
     FM230700 30012KT P6SM SCT020
     FM231400 30013G25KT P6SM SKC=

USA.gov is the U.S. government's official web portal to all federal, state and local government web resources and services.